createdAt,value
2023-03-06T00:01:03.013Z,98225.22
2023-03-06T00:03:30.486Z,98226.75
2023-03-06T00:05:58.862Z,98230.50
2023-03-06T00:08:28.826Z,98232.84
2023-03-06T00:10:57.029Z,98233.53
2023-03-06T00:13:26.782Z,98237.97
2023-03-06T00:15:54.526Z,98227.00
2023-03-06T00:18:22.004Z,98230.94
2023-03-06T00:20:49.468Z,98232.13
2023-03-06T00:23:16.887Z,98226.19
2023-03-06T00:25:45.853Z,98229.31
2023-03-06T00:28:15.750Z,98220.81
2023-03-06T00:30:44.414Z,98218.59
2023-03-06T00:33:12.255Z,98223.88
2023-03-06T00:35:41.242Z,98221.31
2023-03-06T00:38:12.796Z,98219.25
2023-03-06T00:40:40.606Z,98217.97
2023-03-06T00:43:08.060Z,98212.94
2023-03-06T00:45:36.501Z,98217.38
2023-03-06T00:48:04.577Z,98209.69
2023-03-06T00:50:32.239Z,98209.56
2023-03-06T00:53:00.524Z,98214.47
2023-03-06T00:55:29.522Z,98206.31
2023-03-06T00:57:57.034Z,98209.94
2023-03-06T01:00:25.029Z,98208.44
2023-03-06T01:02:53.716Z,98199.81
2023-03-06T01:05:22.891Z,98196.06
2023-03-06T01:07:50.370Z,98196.44
2023-03-06T01:10:17.945Z,98189.06
2023-03-06T01:12:46.122Z,98182.19
2023-03-06T01:15:14.338Z,98180.78
2023-03-06T01:17:41.814Z,98188.63
2023-03-06T01:20:15.057Z,98189.56
2023-03-06T01:22:43.475Z,98175.78
2023-03-06T01:25:11.759Z,98178.00
2023-03-06T01:27:39.318Z,98175.56
2023-03-06T01:30:07.831Z,98174.75
2023-03-06T01:32:35.300Z,98179.75
2023-03-06T01:35:03.990Z,98170.09
2023-03-06T01:37:31.414Z,98170.78
2023-03-06T01:39:58.757Z,98168.22
2023-03-06T01:42:26.057Z,98166.22
2023-03-06T01:45:24.077Z,98169.72
2023-03-06T01:47:51.479Z,98177.88
2023-03-06T01:50:19.045Z,98173.56
2023-03-06T01:52:54.293Z,98180.00
2023-03-06T01:55:29.609Z,98182.81
2023-03-06T01:58:03.490Z,98174.66
2023-03-06T02:00:31.172Z,98186.31
2023-03-06T02:03:11.285Z,98180.47
2023-03-06T02:05:41.308Z,98178.16
2023-03-06T02:08:17.838Z,98183.75
2023-03-06T02:11:13.894Z,98179.78
2023-03-06T02:13:43.431Z,98173.03
2023-03-06T02:16:13.587Z,98172.09
2023-03-06T02:18:44.076Z,98164.75
2023-03-06T02:21:21.858Z,98171.72
2023-03-06T02:24:13.708Z,98170.53
2023-03-06T02:26:43.344Z,98167.63
2023-03-06T02:29:11.513Z,98175.13
2023-03-06T02:31:38.922Z,98164.25
2023-03-06T02:34:14.690Z,98173.47
2023-03-06T02:36:55.157Z,98161.38
2023-03-06T02:39:26.723Z,98170.81
2023-03-06T02:41:55.081Z,98165.34
2023-03-06T02:44:23.891Z,98167.44
2023-03-06T02:46:51.106Z,98166.59
2023-03-06T02:49:18.474Z,98161.34
2023-03-06T02:51:46.190Z,98173.69
2023-03-06T02:54:13.595Z,98171.81
2023-03-06T02:56:43.139Z,98159.47
2023-03-06T02:59:11.193Z,98153.88
2023-03-06T03:01:39.258Z,98154.34
2023-03-06T03:04:06.955Z,98164.03
2023-03-06T03:06:34.369Z,98160.06
2023-03-06T03:09:02.267Z,98156.78
2023-03-06T03:11:29.853Z,98158.03
2023-03-06T03:13:57.210Z,98154.34
2023-03-06T03:16:27.342Z,98148.72
2023-03-06T03:18:58.518Z,98156.31
2023-03-06T03:21:27.649Z,98154.19
2023-03-06T03:23:55.996Z,98148.50
2023-03-06T03:26:26.072Z,98151.75
2023-03-06T03:29:08.401Z,98151.06
2023-03-06T03:31:35.842Z,98153.34
2023-03-06T03:34:04.209Z,98152.78
2023-03-06T03:36:35.208Z,98153.59
2023-03-06T03:39:04.608Z,98151.84
2023-03-06T03:41:33.564Z,98148.97
2023-03-06T03:44:04.182Z,98143.72
2023-03-06T03:46:32.455Z,98150.47
2023-03-06T03:49:01.760Z,98143.72
2023-03-06T03:51:29.248Z,98140.47
2023-03-06T03:53:58.604Z,98137.13
2023-03-06T03:56:29.389Z,98135.25
2023-03-06T03:59:03.089Z,98129.88
2023-03-06T04:01:39.666Z,98138.28
2023-03-06T04:04:08.127Z,98133.69
2023-03-06T04:06:36.088Z,98132.81
2023-03-06T04:09:04.599Z,98137.09
2023-03-06T04:11:32.646Z,98130.69
2023-03-06T04:13:59.997Z,98137.19
2023-03-06T04:16:27.485Z,98130.25
2023-03-06T04:18:55.493Z,98130.13
2023-03-06T04:21:23.163Z,98125.69
2023-03-06T04:23:50.622Z,98115.91
2023-03-06T04:26:18.019Z,98108.22
2023-03-06T04:28:46.182Z,98126.28
2023-03-06T04:31:13.974Z,98117.44
2023-03-06T04:33:41.514Z,98122.78
2023-03-06T04:36:32.124Z,98118.72
2023-03-06T04:39:05.179Z,98117.44
2023-03-06T04:41:34.550Z,98117.31
2023-03-06T04:44:02.270Z,98112.41
2023-03-06T04:46:29.687Z,98106.59
2023-03-06T04:48:58.194Z,98114.28
2023-03-06T04:51:26.088Z,98101.25
2023-03-06T04:53:53.622Z,98102.06
2023-03-06T04:56:21.041Z,98106.78
2023-03-06T04:58:48.503Z,98104.34
2023-03-06T05:01:15.992Z,98095.38
2023-03-06T05:03:43.419Z,98091.53
2023-03-06T05:06:10.884Z,98092.59
2023-03-06T05:08:38.923Z,98081.44
2023-03-06T05:11:06.360Z,98093.75
2023-03-06T05:13:34.045Z,98081.66
2023-03-06T05:16:06.280Z,98078.06
2023-03-06T05:18:34.846Z,98088.31
2023-03-06T05:21:02.639Z,98072.97
2023-03-06T05:23:33.101Z,98083.22
2023-03-06T05:26:00.648Z,98075.28
2023-03-06T05:28:28.682Z,98076.13
2023-03-06T05:30:56.330Z,98080.16
2023-03-06T05:33:23.814Z,98078.16
2023-03-06T05:35:51.260Z,98080.22
2023-03-06T05:38:18.844Z,98073.88
2023-03-06T05:40:46.456Z,98086.25
2023-03-06T05:43:13.999Z,98089.72
2023-03-06T05:45:41.783Z,98091.88
2023-03-06T05:48:11.835Z,98087.19
2023-03-06T05:50:40.269Z,98084.38
2023-03-06T05:53:07.627Z,98077.53
2023-03-06T05:55:35.217Z,98079.72
2023-03-06T05:58:02.626Z,98084.06
2023-03-06T06:00:30.173Z,98082.47
2023-03-06T06:03:02.016Z,98081.13
2023-03-06T06:05:29.382Z,98069.53
2023-03-06T06:07:56.804Z,98053.94
2023-03-06T06:10:24.145Z,98044.50
2023-03-06T06:12:51.528Z,98053.56
2023-03-06T06:15:18.909Z,98046.59
2023-03-06T06:17:46.360Z,98050.41
2023-03-06T06:20:14.551Z,98061.38
2023-03-06T06:22:41.920Z,98059.59
2023-03-06T06:25:09.638Z,98055.16
2023-03-06T06:27:36.985Z,98053.91
2023-03-06T06:30:07.161Z,98052.47
2023-03-06T06:32:34.937Z,98042.69
2023-03-06T06:35:02.931Z,98049.94
2023-03-06T06:37:31.180Z,98037.59
2023-03-06T06:39:58.484Z,98039.75
2023-03-06T06:42:33.263Z,98043.47
2023-03-06T06:45:05.189Z,98042.94
2023-03-06T06:47:34.229Z,98042.28
2023-03-06T06:50:01.713Z,98037.41
2023-03-06T06:52:29.090Z,98043.59
2023-03-06T06:54:56.687Z,98024.56
2023-03-06T06:57:23.990Z,98025.53
2023-03-06T06:59:53.696Z,98021.41
2023-03-06T07:02:21.906Z,98014.25
2023-03-06T07:05:03.228Z,98030.38
2023-03-06T07:07:35.718Z,98029.47
2023-03-06T07:10:12.734Z,98035.91
2023-03-06T07:12:40.292Z,98030.03
2023-03-06T07:15:09.105Z,98024.63
2023-03-06T07:17:36.434Z,98015.31
2023-03-06T07:20:07.009Z,98025.09
2023-03-06T07:22:49.936Z,98029.09
2023-03-06T07:25:19.824Z,98019.19
2023-03-06T07:27:53.351Z,98011.47
2023-03-06T07:30:25.013Z,98014.84
2023-03-06T07:32:55.214Z,98015.38
2023-03-06T07:35:24.931Z,98024.97
2023-03-06T07:37:52.771Z,98007.19
2023-03-06T07:40:21.423Z,98013.47
2023-03-06T07:42:48.853Z,98001.84
2023-03-06T07:45:20.346Z,98001.63
2023-03-06T07:47:50.936Z,98005.84
2023-03-06T07:50:19.698Z,98001.75
2023-03-06T07:52:50.121Z,98008.53
2023-03-06T07:55:18.542Z,97988.81
2023-03-06T07:57:46.417Z,97993.59
2023-03-06T08:00:16.115Z,98022.91
2023-03-06T08:02:43.608Z,98002.59
2023-03-06T08:05:15.504Z,97996.63
2023-03-06T08:07:45.049Z,98006.38
2023-03-06T08:10:16.483Z,98007.44
2023-03-06T08:12:44.201Z,98011.91
2023-03-06T08:15:12.952Z,98003.53
2023-03-06T08:17:40.782Z,98000.41
2023-03-06T08:20:10.428Z,98002.78
2023-03-06T08:22:38.620Z,98004.72
2023-03-06T08:25:07.559Z,98006.56
2023-03-06T08:27:35.538Z,98012.84
2023-03-06T08:30:03.789Z,98018.06
2023-03-06T08:32:31.172Z,98016.03
2023-03-06T08:34:58.471Z,98010.16
2023-03-06T08:37:25.917Z,98007.41
2023-03-06T08:39:53.309Z,98012.97
2023-03-06T08:42:20.621Z,98020.91
2023-03-06T08:44:48.016Z,98006.13
2023-03-06T08:47:15.398Z,98009.63
2023-03-06T08:49:42.741Z,97997.94
2023-03-06T08:52:11.158Z,97997.19
2023-03-06T08:54:39.780Z,97996.44
2023-03-06T08:57:07.201Z,97992.69
2023-03-06T08:59:35.212Z,97994.25
2023-03-06T09:02:03.965Z,97994.38
2023-03-06T09:04:31.745Z,97999.47
2023-03-06T09:07:00.536Z,98012.78
2023-03-06T09:09:28.007Z,98010.28
2023-03-06T09:11:56.297Z,97999.59
2023-03-06T09:14:23.560Z,98002.19
2023-03-06T09:16:50.859Z,97999.06
2023-03-06T09:19:18.198Z,97988.09
2023-03-06T09:21:45.610Z,97983.19
2023-03-06T09:24:12.989Z,97984.28
2023-03-06T09:26:46.027Z,97981.13
2023-03-06T09:29:16.335Z,97981.22
2023-03-06T09:31:44.945Z,97974.00
2023-03-06T09:34:12.569Z,97968.00
2023-03-06T09:36:55.040Z,97965.06
2023-03-06T09:39:26.149Z,97968.88
2023-03-06T09:41:55.250Z,97959.81
2023-03-06T09:44:31.066Z,97958.28
2023-03-06T09:47:44.838Z,97960.78
2023-03-06T09:50:29.300Z,97961.78
2023-03-06T09:53:11.837Z,97955.09
2023-03-06T09:55:41.120Z,97958.22
2023-03-06T09:58:27.585Z,97960.97
2023-03-06T10:01:05.951Z,97948.84
2023-03-06T10:04:12.584Z,97948.84
2023-03-06T10:06:49.215Z,97936.44
2023-03-06T10:09:20.692Z,97936.22
2023-03-06T10:11:54.363Z,97931.47
2023-03-06T10:14:47.735Z,97916.69
2023-03-06T10:17:21.070Z,97928.69
2023-03-06T10:19:49.376Z,97933.47
2023-03-06T10:22:33.171Z,97932.06
2023-03-06T10:25:25.994Z,97937.06
2023-03-06T10:28:16.828Z,97916.25
2023-03-06T10:31:26.646Z,97911.94
2023-03-06T10:34:11.888Z,97906.22
2023-03-06T10:36:39.255Z,97890.03
2023-03-06T10:39:22.536Z,97896.94
2023-03-06T10:41:50.176Z,97909.09
2023-03-06T10:44:20.337Z,97904.28
2023-03-06T10:46:52.708Z,97896.88
2023-03-06T10:49:37.582Z,97895.47
2023-03-06T10:52:14.207Z,97894.16
2023-03-06T10:54:45.010Z,97891.94
2023-03-06T10:57:29.691Z,97884.97
2023-03-06T11:00:01.208Z,97877.69
2023-03-06T11:02:40.918Z,97862.63
2023-03-06T11:05:20.754Z,97854.41
2023-03-06T11:07:59.474Z,97851.88
2023-03-06T11:10:30.246Z,97853.41
2023-03-06T11:13:25.888Z,97850.53
2023-03-06T11:16:03.278Z,97848.03
2023-03-06T11:18:42.769Z,97832.44
2023-03-06T11:21:32.759Z,97844.38
2023-03-06T11:24:16.696Z,97832.38
2023-03-06T11:26:50.479Z,97828.75
2023-03-06T11:29:31.230Z,97815.38
2023-03-06T11:32:33.148Z,97811.78
2023-03-06T11:35:12.284Z,97810.78
2023-03-06T11:38:10.834Z,97792.84
2023-03-06T11:40:51.385Z,97798.09
2023-03-06T11:44:06.422Z,97791.28
2023-03-06T11:46:57.933Z,97777.22
2023-03-06T11:49:43.481Z,97775.09
2023-03-06T11:52:44.487Z,97764.31
2023-03-06T11:55:17.514Z,97770.50
2023-03-06T11:58:11.964Z,97761.19
2023-03-06T12:01:00.155Z,97762.25
2023-03-06T12:03:42.144Z,97752.47
2023-03-06T12:06:18.328Z,97744.19
2023-03-06T12:08:51.447Z,97746.59
2023-03-06T12:12:01.087Z,97745.66
2023-03-06T12:14:46.700Z,97738.50
2023-03-06T12:17:41.214Z,97749.16
2023-03-06T12:20:14.512Z,97745.63
2023-03-06T12:23:16.141Z,97739.31
2023-03-06T12:25:51.515Z,97726.75
2023-03-06T12:28:54.778Z,97734.72
2023-03-06T12:31:54.597Z,97722.72
2023-03-06T12:35:02.415Z,97719.19
2023-03-06T12:37:51.451Z,97724.25
2023-03-06T12:40:36.078Z,97715.84
2023-03-06T12:43:39.972Z,97717.28
2023-03-06T12:46:26.130Z,97706.88
2023-03-06T12:49:15.621Z,97693.50
2023-03-06T12:51:46.362Z,97693.97
2023-03-06T12:54:14.935Z,97703.69
2023-03-06T12:56:43.557Z,97698.63
2023-03-06T12:59:38.456Z,97694.56
2023-03-06T13:02:27.636Z,97692.38
2023-03-06T13:05:03.769Z,97690.84
2023-03-06T13:07:58.033Z,97684.06
2023-03-06T13:10:30.722Z,97680.53
2023-03-06T13:13:05.272Z,97678.69
2023-03-06T13:16:09.321Z,97681.16
2023-03-06T13:18:36.884Z,97676.00
2023-03-06T13:21:04.961Z,97682.84
2023-03-06T13:23:32.253Z,97671.75
2023-03-06T13:26:25.056Z,97683.75
2023-03-06T13:28:56.226Z,97687.06
2023-03-06T13:32:14.628Z,97694.00
2023-03-06T13:34:48.535Z,97684.66
2023-03-06T13:37:19.407Z,97690.03
2023-03-06T13:39:55.415Z,97689.56
2023-03-06T13:42:37.273Z,97684.19
2023-03-06T13:45:14.171Z,97683.28
2023-03-06T13:48:37.534Z,97679.03
2023-03-06T13:50:49.547Z,97678.94
2023-03-06T13:53:29.051Z,97669.91
2023-03-06T13:56:50.374Z,97675.75
2023-03-06T13:59:17.644Z,97671.72
2023-03-06T14:02:15.753Z,97663.50
2023-03-06T14:04:53.677Z,97663.13
2023-03-06T14:07:30.304Z,97663.78
2023-03-06T14:10:22.868Z,97668.47
2023-03-06T14:12:50.184Z,97650.88
2023-03-06T14:15:21.751Z,97646.56
2023-03-06T14:18:07.440Z,97654.56
2023-03-06T14:20:52.362Z,97640.94
2023-03-06T14:23:42.538Z,97640.13
2023-03-06T14:26:24.835Z,97631.78
2023-03-06T14:28:52.181Z,97633.69
2023-03-06T14:31:41.300Z,97626.97
2023-03-06T14:34:22.400Z,97632.97
2023-03-06T14:36:58.194Z,97617.63
2023-03-06T14:39:39.149Z,97627.78
2023-03-06T14:42:24.735Z,97623.03
2023-03-06T14:45:16.207Z,97621.22
2023-03-06T14:47:50.389Z,97617.00
2023-03-06T14:50:20.164Z,97616.16
2023-03-06T14:52:50.372Z,97622.22
2023-03-06T14:55:25.452Z,97619.53
2023-03-06T14:58:20.175Z,97611.38
2023-03-06T15:00:54.575Z,97612.13
2023-03-06T15:03:35.632Z,97600.69
2023-03-06T15:06:04.869Z,97605.38
2023-03-06T15:08:39.166Z,97606.84
2023-03-06T15:11:07.939Z,97596.91
2023-03-06T15:13:35.778Z,97591.31
2023-03-06T15:16:06.203Z,97596.84
2023-03-06T15:18:35.475Z,97612.13
2023-03-06T15:21:16.288Z,97595.63
2023-03-06T15:23:48.434Z,97600.16
2023-03-06T15:26:36.883Z,97602.56
2023-03-06T15:29:10.850Z,97596.53
2023-03-06T15:31:44.532Z,97598.19
2023-03-06T15:34:11.930Z,97606.88
2023-03-06T15:36:44.897Z,97598.94
2023-03-06T15:39:39.334Z,97595.50
2023-03-06T15:42:28.090Z,97605.59
2023-03-06T15:45:05.597Z,97618.03
2023-03-06T15:47:33.152Z,97612.09
2023-03-06T15:50:00.506Z,97611.56
2023-03-06T15:52:27.948Z,97607.34
2023-03-06T15:54:55.250Z,97605.09
2023-03-06T15:57:26.700Z,97610.44
2023-03-06T15:59:56.250Z,97606.00
2023-03-06T16:02:24.606Z,97611.53
2023-03-06T16:04:52.673Z,97609.59
2023-03-06T16:07:20.728Z,97615.66
2023-03-06T16:09:48.576Z,97616.47
2023-03-06T16:12:20.222Z,97621.91
2023-03-06T16:14:48.854Z,97619.88
2023-03-06T16:17:17.462Z,97624.00
2023-03-06T16:19:45.291Z,97626.22
2023-03-06T16:22:12.853Z,97627.03
2023-03-06T16:24:40.704Z,97627.06
2023-03-06T16:27:19.074Z,97616.59
2023-03-06T16:29:46.618Z,97623.88
2023-03-06T16:32:14.423Z,97636.16
2023-03-06T16:34:41.967Z,97634.91
2023-03-06T16:37:13.404Z,97633.09
2023-03-06T16:39:40.838Z,97633.16
2023-03-06T16:42:08.448Z,97629.00
2023-03-06T16:44:35.891Z,97627.59
2023-03-06T16:47:03.313Z,97636.69
2023-03-06T16:49:30.728Z,97639.75
2023-03-06T16:51:58.100Z,97634.53
2023-03-06T16:54:26.237Z,97638.94
2023-03-06T16:56:53.685Z,97647.19
2023-03-06T16:59:21.228Z,97653.63
2023-03-06T17:01:48.613Z,97644.97
2023-03-06T17:04:15.955Z,97651.81
2023-03-06T17:06:43.437Z,97644.59
2023-03-06T17:09:11.072Z,97644.63
2023-03-06T17:11:38.817Z,97650.44
2023-03-06T17:14:07.017Z,97647.44
2023-03-06T17:16:36.537Z,97641.59
2023-03-06T17:19:04.080Z,97651.25
2023-03-06T17:21:34.408Z,97655.06
2023-03-06T17:24:03.691Z,97649.84
2023-03-06T17:26:31.337Z,97652.66
2023-03-06T17:28:58.739Z,97646.81
2023-03-06T17:31:28.560Z,97652.84
2023-03-06T17:33:59.258Z,97646.84
2023-03-06T17:36:31.275Z,97646.84
2023-03-06T17:39:01.953Z,97646.22
2023-03-06T17:41:29.959Z,97646.63
2023-03-06T17:43:58.307Z,97652.81
2023-03-06T17:46:26.270Z,97655.44
2023-03-06T17:48:55.474Z,97657.84
2023-03-06T17:51:22.892Z,97654.78
2023-03-06T17:53:52.147Z,97651.19
2023-03-06T17:56:19.801Z,97642.16
2023-03-06T17:58:47.648Z,97655.81
2023-03-06T18:01:22.160Z,97644.16
2023-03-06T18:03:51.532Z,97647.91
2023-03-06T18:06:22.070Z,97645.88
2023-03-06T18:08:52.375Z,97657.09
2023-03-06T18:11:21.088Z,97654.84
2023-03-06T18:13:49.293Z,97657.03
2023-03-06T18:16:19.950Z,97659.19
2023-03-06T18:18:47.408Z,97655.94
2023-03-06T18:21:16.700Z,97657.28
2023-03-06T18:23:44.417Z,97666.69
2023-03-06T18:26:25.524Z,97664.25
2023-03-06T18:28:56.565Z,97658.50
2023-03-06T18:31:34.439Z,97651.97
2023-03-06T18:34:08.048Z,97661.66
2023-03-06T18:36:37.149Z,97649.34
2023-03-06T18:39:08.940Z,97653.84
2023-03-06T18:41:37.331Z,97653.09
2023-03-06T18:44:05.967Z,97654.94
2023-03-06T18:46:37.303Z,97645.47
2023-03-06T18:49:05.641Z,97649.97
2023-03-06T18:51:33.736Z,97641.50
2023-03-06T18:54:03.058Z,97645.00
2023-03-06T18:56:31.123Z,97644.78
2023-03-06T18:59:06.934Z,97653.13
2023-03-06T19:01:34.923Z,97651.41
2023-03-06T19:04:04.497Z,97657.72
2023-03-06T19:06:32.087Z,97647.88
2023-03-06T19:09:01.426Z,97652.53
2023-03-06T19:11:30.295Z,97657.22
2023-03-06T19:13:58.440Z,97657.81
2023-03-06T19:16:28.522Z,97655.34
2023-03-06T19:18:57.294Z,97662.47
2023-03-06T19:21:27.549Z,97651.72
2023-03-06T19:23:56.140Z,97644.91
2023-03-06T19:26:23.446Z,97649.16
2023-03-06T19:28:52.587Z,97651.63
2023-03-06T19:31:25.357Z,97650.94
2023-03-06T19:33:55.974Z,97653.03
2023-03-06T19:36:27.798Z,97648.81
2023-03-06T19:38:57.446Z,97653.72
2023-03-06T19:41:25.696Z,97657.09
2023-03-06T19:43:58.303Z,97652.81
2023-03-06T19:46:27.340Z,97672.19
2023-03-06T19:49:01.399Z,97662.75
2023-03-06T19:51:29.437Z,97668.66
2023-03-06T19:53:57.708Z,97669.72
2023-03-06T19:56:28.344Z,97672.22
2023-03-06T19:58:56.509Z,97668.09
2023-03-06T20:01:26.569Z,97670.41
2023-03-06T20:03:59.444Z,97672.84
2023-03-06T20:06:33.809Z,97672.19
2023-03-06T20:09:04.915Z,97669.19
2023-03-06T20:11:32.528Z,97666.31
2023-03-06T20:14:03.842Z,97667.44
2023-03-06T20:16:33.066Z,97670.22
2023-03-06T20:19:02.898Z,97671.03
2023-03-06T20:21:35.428Z,97676.03
2023-03-06T20:24:03.196Z,97665.63
2023-03-06T20:26:31.614Z,97666.69
2023-03-06T20:28:59.315Z,97666.88
2023-03-06T20:31:29.339Z,97661.41
2023-03-06T20:33:59.538Z,97667.59
2023-03-06T20:36:35.940Z,97669.53
2023-03-06T20:39:11.773Z,97672.22
2023-03-06T20:41:40.744Z,97670.97
2023-03-06T20:44:14.506Z,97679.03
2023-03-06T20:46:44.420Z,97674.09
2023-03-06T20:49:13.472Z,97675.16
2023-03-06T20:51:41.840Z,97677.03
2023-03-06T20:54:14.026Z,97671.72
2023-03-06T20:56:45.998Z,97667.72
2023-03-06T20:59:14.568Z,97669.78
2023-03-06T21:01:44.525Z,97682.84
2023-03-06T21:04:14.089Z,97679.28
2023-03-06T21:06:46.460Z,97674.09
2023-03-06T21:09:17.032Z,97673.03
2023-03-06T21:11:45.103Z,97674.97
2023-03-06T21:14:14.345Z,97672.19
2023-03-06T21:16:43.022Z,97669.31
2023-03-06T21:19:11.116Z,97671.09
2023-03-06T21:21:38.749Z,97661.63
2023-03-06T21:24:06.350Z,97663.13
2023-03-06T21:26:34.171Z,97654.16
2023-03-06T21:29:02.933Z,97668.31
2023-03-06T21:31:31.204Z,97665.09
2023-03-06T21:33:59.446Z,97674.81
2023-03-06T21:36:27.736Z,97665.13
2023-03-06T21:38:55.819Z,97669.19
2023-03-06T21:41:30.397Z,97664.53
2023-03-06T21:44:03.863Z,97663.91
2023-03-06T21:46:31.734Z,97664.22
2023-03-06T21:48:59.801Z,97668.28
2023-03-06T21:51:27.947Z,97676.34
2023-03-06T21:53:55.854Z,97672.41
2023-03-06T21:56:26.263Z,97671.91
2023-03-06T21:58:54.336Z,97662.41
2023-03-06T22:01:27.370Z,97672.66
2023-03-06T22:03:55.258Z,97671.69
2023-03-06T22:06:26.635Z,97670.56
2023-03-06T22:09:00.584Z,97672.69
2023-03-06T22:11:31.399Z,97683.41
2023-03-06T22:13:59.915Z,97678.72
2023-03-06T22:16:27.587Z,97681.03
2023-03-06T22:18:54.952Z,97680.22
2023-03-06T22:21:23.881Z,97673.91
2023-03-06T22:23:58.383Z,97679.47
2023-03-06T22:26:30.149Z,97682.53
2023-03-06T22:28:57.732Z,97688.22
2023-03-06T22:31:28.871Z,97679.50
2023-03-06T22:33:59.802Z,97672.06
2023-03-06T22:36:30.655Z,97670.75
2023-03-06T22:39:01.643Z,97673.16
2023-03-06T22:41:30.018Z,97666.22
2023-03-06T22:44:00.225Z,97669.59
2023-03-06T22:46:28.240Z,97675.75
2023-03-06T22:48:57.615Z,97672.38
2023-03-06T22:51:26.217Z,97677.09
2023-03-06T22:53:53.571Z,97676.91
2023-03-06T22:56:23.115Z,97670.94
2023-03-06T22:58:51.033Z,97676.59
2023-03-06T23:01:21.849Z,97684.03
2023-03-06T23:03:52.673Z,97680.81
2023-03-06T23:06:24.172Z,97693.69
2023-03-06T23:08:58.743Z,97689.78
2023-03-06T23:11:27.987Z,97688.50
2023-03-06T23:14:16.040Z,97685.75
2023-03-06T23:17:01.594Z,97693.97
2023-03-06T23:19:49.825Z,97697.03
2023-03-06T23:22:36.264Z,97695.38
2023-03-06T23:25:21.989Z,97697.59
2023-03-06T23:27:49.420Z,97697.78
2023-03-06T23:30:17.121Z,97703.69
2023-03-06T23:32:46.024Z,97697.69
2023-03-06T23:35:14.074Z,97704.94
2023-03-06T23:37:41.410Z,97692.84
2023-03-06T23:40:10.208Z,97695.00
2023-03-06T23:42:37.457Z,97697.72
2023-03-06T23:45:05.513Z,97699.19
2023-03-06T23:47:34.250Z,97702.94
2023-03-06T23:50:01.604Z,97703.78
2023-03-06T23:52:28.838Z,97706.88
2023-03-06T23:54:56.161Z,97698.63
2023-03-06T23:57:23.940Z,97707.34
2023-03-06T23:59:51.348Z,97705.75
